Time;durP1;ratioP1;P1;durP2;ratioP2;P2;SDS_P1;SDS_P2;PMS_P1;PMS_P2;Temp;Humidity;BMP_temperature;BMP_pressure;BME280_temperature;BME280_humidity;BME280_pressure;Samples;Min_cycle;Max_cycle;Signal;HPM_P1;HPM_P2
2023/12/22 00:00:18;;;;;;;0.77;0.67;;;8.30;99.90;;;;;;4977588;28;20775;-84
2023/12/22 00:02:43;;;;;;;0.70;0.60;;;8.40;99.90;;;;;;4974300;28;20187;-78
2023/12/22 00:05:09;;;;;;;0.30;0.30;;;8.50;99.90;;;;;;4969483;28;20198;-86
2023/12/22 00:07:35;;;;;;;0.70;0.50;;;8.40;99.90;;;;;;4973640;28;20194;-82
2023/12/22 00:10:00;;;;;;;1.07;0.80;;;8.10;99.90;;;;;;4982747;28;20613;-83
2023/12/22 00:12:26;;;;;;;2.50;0.93;;;7.40;99.90;;;;;;4966729;28;20197;-80
2023/12/22 00:14:51;;;;;;;0.40;0.40;;;7.00;99.90;;;;;;4968140;28;20214;-82
2023/12/22 00:17:17;;;;;;;0.40;0.33;;;6.60;99.90;;;;;;4985397;28;20445;-86
2023/12/22 00:19:43;;;;;;;0.50;0.50;;;6.30;99.90;;;;;;4974242;28;20579;-84
2023/12/22 00:22:08;;;;;;;0.40;0.20;;;6.20;99.90;;;;;;4989460;28;20310;-82
2023/12/22 00:24:34;;;;;;;0.77;0.77;;;6.00;99.90;;;;;;4990051;28;20201;-82
2023/12/22 00:26:59;;;;;;;0.33;0.30;;;5.90;99.90;;;;;;5003555;28;20205;-85
2023/12/22 00:29:25;;;;;;;0.50;0.40;;;5.70;99.90;;;;;;5006236;28;20602;-81
2023/12/22 00:31:50;;;;;;;0.40;0.30;;;5.70;99.90;;;;;;4995062;28;20206;-80
2023/12/22 00:34:16;;;;;;;0.30;0.20;;;5.60;99.90;;;;;;5001290;28;20221;-78
2023/12/22 00:36:41;;;;;;;1.33;0.70;;;5.60;99.90;;;;;;5013901;28;20203;-83
2023/12/22 00:39:08;;;;;;;0.40;0.40;;;5.50;99.90;;;;;;4987654;28;20206;-79
2023/12/22 00:41:34;;;;;;;0.50;0.50;;;5.40;99.90;;;;;;5014474;28;20799;-81
2023/12/22 00:43:59;;;;;;;0.60;0.57;;;5.20;99.90;;;;;;4990284;28;20370;-83
2023/12/22 00:46:25;;;;;;;1.13;0.40;;;5.20;99.90;;;;;;5000432;28;20588;-81
2023/12/22 00:48:50;;;;;;;0.57;0.50;;;5.20;99.90;;;;;;5002467;28;20213;-86
2023/12/22 00:51:16;;;;;;;0.40;0.30;;;5.30;99.90;;;;;;4983079;28;20186;-80
2023/12/22 00:53:42;;;;;;;1.13;1.03;;;5.20;99.90;;;;;;4980551;28;20202;-83
2023/12/22 00:56:09;;;;;;;0.30;0.20;;;5.20;99.90;;;;;;4985988;28;20763;-86
2023/12/22 00:58:34;;;;;;;0.60;0.35;;;5.20;99.90;;;;;;4988844;28;20202;-82
2023/12/22 01:01:00;;;;;;;1.60;1.23;;;;;;;;;;4988437;28;20199;-85
2023/12/22 01:03:26;;;;;;;0.30;0.20;;;5.20;99.90;;;;;;4983005;28;20179;-85
2023/12/22 01:05:51;;;;;;;1.00;0.60;;;5.30;99.90;;;;;;5014643;28;21091;-84
2023/12/22 01:08:17;;;;;;;1.03;0.50;;;5.30;99.90;;;;;;4985049;28;20198;-83
2023/12/22 01:10:42;;;;;;;0.40;0.30;;;5.40;99.90;;;;;;4971262;28;20195;-80
2023/12/22 01:13:08;;;;;;;0.40;0.30;;;5.40;99.90;;;;;;4968508;28;20677;-84
2023/12/22 01:15:33;;;;;;;0.40;0.30;;;5.30;99.90;;;;;;4992698;28;20194;-82
2023/12/22 01:17:59;;;;;;;0.97;0.50;;;5.20;99.90;;;;;;4968131;28;20191;-87
2023/12/22 01:20:25;;;;;;;0.70;0.60;;;;;;;;;;4982247;28;20207;-80
2023/12/22 01:22:50;;;;;;;2.20;0.50;;;5.30;99.90;;;;;;5001650;28;20197;-85
2023/12/22 01:25:16;;;;;;;0.50;0.45;;;5.40;99.90;;;;;;4986347;28;20499;-82
2023/12/22 01:27:42;;;;;;;0.50;0.50;;;5.40;99.90;;;;;;4972548;28;20184;-83
2023/12/22 01:30:08;;;;;;;1.57;0.77;;;5.50;99.90;;;;;;4999050;28;20210;-83
2023/12/22 01:32:36;;;;;;;0.68;0.45;;;5.50;99.90;;;;;;4974491;28;20244;-85
2023/12/22 01:35:06;;;;;;;11.77;0.98;;;5.60;99.90;;;;;;4985314;28;20206;-84
2023/12/22 01:37:32;;;;;;;1.65;0.82;;;5.70;99.90;;;;;;4981804;28;20207;-84
2023/12/22 01:39:58;;;;;;;0.40;0.30;;;5.60;99.90;;;;;;4988061;28;20246;-83
2023/12/22 01:42:23;;;;;;;0.50;0.43;;;5.50;99.90;;;;;;5000419;28;20222;-80
2023/12/22 01:44:49;;;;;;;0.40;0.40;;;;;;;;;;4989754;28;20611;-83
2023/12/22 01:47:15;;;;;;;0.40;0.40;;;5.50;99.90;;;;;;4992558;28;20221;-79
2023/12/22 01:49:41;;;;;;;1.80;0.40;;;5.50;99.90;;;;;;4992899;28;20561;-84
2023/12/22 01:52:07;;;;;;;0.60;0.40;;;5.70;99.90;;;;;;4971635;28;20277;-83
2023/12/22 01:54:33;;;;;;;0.40;0.40;;;6.00;99.90;;;;;;4980150;28;20502;-81
2023/12/22 01:56:58;;;;;;;7.00;1.30;;;6.30;99.90;;;;;;4987106;28;20220;-85
2023/12/22 01:59:24;;;;;;;0.40;0.40;;;6.40;99.90;;;;;;4989669;28;20649;-82
2023/12/22 02:01:50;;;;;;;0.40;0.40;;;6.70;99.90;;;;;;4983820;28;20190;-84
2023/12/22 02:04:15;;;;;;;0.80;0.67;;;6.80;99.90;;;;;;5003302;28;20183;-80
2023/12/22 02:06:42;;;;;;;1.27;0.60;;;6.90;99.90;;;;;;4986116;28;20203;-84
2023/12/22 02:09:08;;;;;;;0.60;0.47;;;6.90;99.90;;;;;;4989013;28;20255;-84
2023/12/22 02:11:33;;;;;;;0.40;0.40;;;6.90;99.90;;;;;;4984262;28;20198;-82
2023/12/22 02:13:59;;;;;;;1.13;0.70;;;6.90;99.90;;;;;;4984513;28;20215;-85
2023/12/22 02:16:44;;;;;;;0.37;0.30;;;7.00;99.90;;;;;;4984312;28;20191;-84
2023/12/22 02:19:26;;;;;;;0.73;0.50;;;7.00;99.90;;;;;;4979558;28;20211;-81
2023/12/22 02:22:03;;;;;;;2.35;1.63;;;7.00;99.90;;;;;;4982818;28;20257;-82
2023/12/22 02:24:30;;;;;;;0.60;0.60;;;;;;;;;;4987254;28;20190;-81
2023/12/22 02:27:03;;;;;;;1.30;0.32;;;7.20;99.90;;;;;;4986528;28;20898;-80
2023/12/22 02:29:34;;;;;;;0.50;0.50;;;7.30;99.90;;;;;;4977533;28;20741;-84
2023/12/22 02:32:05;;;;;;;0.40;0.30;;;7.30;99.90;;;;;;4996593;28;20191;-84
2023/12/22 02:34:35;;;;;;;0.52;0.52;;;7.30;99.90;;;;;;4974296;28;20215;-84
2023/12/22 02:37:01;;;;;;;2.95;0.93;;;7.30;99.90;;;;;;4969788;28;20306;-80
2023/12/22 02:39:26;;;;;;;0.70;0.30;;;7.40;99.90;;;;;;4983515;28;20233;-82
2023/12/22 02:41:52;;;;;;;1.00;0.43;;;7.30;99.90;;;;;;4981319;28;20195;-86
2023/12/22 02:44:18;;;;;;;0.60;0.60;;;9.20;99.90;;;;;;4980266;28;20191;-83
2023/12/22 02:46:44;;;;;;;0.97;0.87;;;7.40;99.90;;;;;;4979839;28;20684;-85
2023/12/22 02:49:10;;;;;;;1.27;0.40;;;7.40;99.90;;;;;;4991917;28;20202;-79
2023/12/22 02:51:35;;;;;;;3.60;0.77;;;7.40;99.90;;;;;;4994005;28;20531;-82
2023/12/22 02:54:01;;;;;;;1.53;0.63;;;7.40;99.90;;;;;;5001958;28;20558;-82
2023/12/22 02:56:26;;;;;;;0.40;0.30;;;7.40;99.90;;;;;;4995670;28;20246;-85
2023/12/22 02:58:52;;;;;;;6.73;0.40;;;7.40;99.90;;;;;;4999027;28;20532;-85
2023/12/22 03:01:17;;;;;;;4.30;1.13;;;7.30;99.90;;;;;;4990317;28;20575;-83
2023/12/22 03:03:43;;;;;;;0.70;0.50;;;7.40;99.90;;;;;;4978767;28;20206;-83
2023/12/22 03:06:08;;;;;;;4.73;0.80;;;7.40;99.90;;;;;;4988807;28;20199;-81
2023/12/22 03:08:34;;;;;;;0.30;0.20;;;7.40;99.90;;;;;;5001112;28;20218;-82
2023/12/22 03:10:59;;;;;;;0.73;0.73;;;7.40;99.90;;;;;;4979888;28;20309;-83
2023/12/22 03:13:25;;;;;;;0.40;0.30;;;7.40;99.90;;;;;;4985658;28;20805;-83
2023/12/22 03:15:50;;;;;;;6.50;0.90;;;7.40;99.90;;;;;;4983094;28;20197;-82
2023/12/22 03:18:16;;;;;;;1.00;0.40;;;;;;;;;;4981456;28;20190;-84
2023/12/22 03:20:42;;;;;;;2.17;1.07;;;7.60;99.90;;;;;;5013631;28;20186;-82
2023/12/22 03:23:07;;;;;;;1.27;0.50;;;7.60;99.90;;;;;;4988865;28;20457;-86
2023/12/22 03:25:33;;;;;;;0.73;0.50;;;7.60;99.90;;;;;;4987995;28;20213;-84
2023/12/22 03:27:58;;;;;;;0.73;0.50;;;7.60;99.90;;;;;;4973265;28;20203;-84
2023/12/22 03:30:24;;;;;;;0.60;0.40;;;7.70;99.90;;;;;;4981337;28;20194;-82
2023/12/22 03:32:50;;;;;;;1.00;0.50;;;7.70;99.90;;;;;;4985949;28;20251;-84
2023/12/22 03:35:15;;;;;;;0.70;0.70;;;7.70;99.90;;;;;;4986070;28;20503;-87
2023/12/22 03:37:40;;;;;;;3.53;1.23;;;7.70;99.90;;;;;;4988952;28;20278;-81
2023/12/22 03:40:07;;;;;;;0.30;0.30;;;7.70;99.90;;;;;;4980448;28;20230;-82
2023/12/22 03:42:32;;;;;;;1.95;1.10;;;7.70;99.90;;;;;;4987453;28;20202;-82
2023/12/22 03:44:58;;;;;;;1.43;0.70;;;7.70;99.90;;;;;;4989656;28;20740;-80
2023/12/22 03:47:23;;;;;;;0.40;0.20;;;7.60;99.90;;;;;;4995344;28;20187;-84
2023/12/22 03:49:49;;;;;;;3.20;0.40;;;7.60;99.90;;;;;;4978545;28;20210;-81
2023/12/22 03:52:14;;;;;;;1.30;0.60;;;7.60;99.90;;;;;;4985069;28;20187;-84
2023/12/22 03:54:40;;;;;;;0.40;0.30;;;7.60;99.90;;;;;;4980907;28;20202;-84
2023/12/22 03:57:05;;;;;;;0.63;0.63;;;7.60;99.90;;;;;;4965119;28;20187;-80
2023/12/22 03:59:31;;;;;;;0.40;0.30;;;7.60;99.90;;;;;;5004248;28;20310;-82
2023/12/22 04:01:57;;;;;;;0.60;0.60;;;7.40;99.90;;;;;;4972099;28;20179;-82
2023/12/22 04:04:23;;;;;;;2.95;1.00;;;7.20;99.90;;;;;;4989494;28;20174;-84
2023/12/22 04:06:50;;;;;;;0.83;0.60;;;7.00;99.90;;;;;;4981703;28;20191;-80
2023/12/22 04:09:15;;;;;;;1.75;0.73;;;7.00;99.90;;;;;;4973523;28;20475;-83
2023/12/22 04:11:41;;;;;;;1.30;0.63;;;7.00;99.90;;;;;;4984132;28;20285;-83
2023/12/22 04:14:06;;;;;;;7.07;0.63;;;6.80;99.90;;;;;;4982385;28;20206;-85
2023/12/22 04:16:32;;;;;;;0.40;0.30;;;6.60;99.90;;;;;;4986556;28;20489;-80
2023/12/22 04:18:57;;;;;;;0.90;0.33;;;6.30;99.90;;;;;;4987825;28;21145;-83
2023/12/22 04:21:23;;;;;;;0.63;0.40;;;6.10;99.90;;;;;;4992472;28;20190;-85
2023/12/22 04:23:48;;;;;;;0.63;0.63;;;6.10;99.90;;;;;;4973539;28;20179;-83
2023/12/22 04:26:14;;;;;;;1.43;0.40;;;6.10;99.90;;;;;;4977925;28;20240;-82
2023/12/22 04:28:39;;;;;;;0.50;0.50;;;8.20;99.90;;;;;;4987015;28;20206;-83
2023/12/22 04:31:06;;;;;;;4.10;0.70;;;6.10;99.90;;;;;;4986662;28;20187;-80
2023/12/22 04:33:31;;;;;;;1.35;1.20;;;6.10;99.90;;;;;;4993733;28;20190;-85
2023/12/22 04:35:57;;;;;;;1.70;0.60;;;6.40;99.90;;;;;;4992195;28;20276;-83
2023/12/22 04:38:22;;;;;;;3.03;0.50;;;6.40;99.90;;;;;;4973828;28;20728;-84
2023/12/22 04:40:48;;;;;;;0.57;0.50;;;6.60;99.90;;;;;;4990231;28;20195;-83
2023/12/22 04:43:13;;;;;;;4.63;0.67;;;6.60;99.90;;;;;;4969852;28;20183;-83
2023/12/22 04:45:39;;;;;;;6.33;0.50;;;6.70;99.90;;;;;;4977699;28;20206;-85
2023/12/22 04:48:05;;;;;;;2.67;1.03;;;6.80;99.90;;;;;;4987229;28;20178;-81
2023/12/22 04:50:31;;;;;;;0.30;0.30;;;6.80;99.90;;;;;;4997461;28;20248;-86
2023/12/22 04:52:56;;;;;;;1.13;0.30;;;6.80;99.90;;;;;;4992805;28;20198;-81
2023/12/22 04:55:22;;;;;;;20.57;2.40;;;6.80;99.90;;;;;;4993153;28;20211;-84
2023/12/22 04:57:48;;;;;;;0.30;0.20;;;;;;;;;;4983307;28;20530;-84
2023/12/22 05:00:14;;;;;;;1.73;1.63;;;6.90;99.90;;;;;;4988919;28;20287;-84
2023/12/22 05:02:39;;;;;;;2.05;0.38;;;6.90;99.90;;;;;;4973937;28;20946;-85
2023/12/22 05:05:05;;;;;;;0.80;0.40;;;6.90;99.90;;;;;;5006250;28;20279;-79
2023/12/22 05:07:31;;;;;;;1.80;0.50;;;6.90;99.90;;;;;;4989314;28;20210;-81
2023/12/22 05:09:57;;;;;;;4.07;1.07;;;6.90;99.90;;;;;;5012367;28;20535;-83
2023/12/22 05:12:22;;;;;;;0.40;0.30;;;6.90;99.90;;;;;;4996448;28;20229;-85
2023/12/22 05:14:48;;;;;;;2.70;0.70;;;6.90;99.90;;;;;;4992115;28;20268;-81
2023/12/22 05:17:13;;;;;;;0.77;0.40;;;6.90;99.90;;;;;;4994489;28;20187;-82
2023/12/22 05:19:38;;;;;;;0.40;0.40;;;6.90;99.90;;;;;;4990339;28;20254;-84
2023/12/22 05:22:04;;;;;;;1.33;0.50;;;6.90;99.90;;;;;;4972125;28;20186;-86
2023/12/22 05:24:29;;;;;;;0.47;0.30;;;6.90;99.90;;;;;;4986078;28;20226;-83
2023/12/22 05:26:55;;;;;;;4.37;0.43;;;6.90;99.90;;;;;;4977337;28;20251;-84
2023/12/22 05:29:20;;;;;;;0.80;0.40;;;6.90;99.90;;;;;;4989431;28;20244;-83
2023/12/22 05:31:46;;;;;;;1.73;0.60;;;6.90;99.90;;;;;;5001560;28;20198;-85
2023/12/22 05:34:11;;;;;;;0.50;0.40;;;7.00;99.90;;;;;;4992279;28;21093;-82
2023/12/22 05:36:37;;;;;;;1.30;1.03;;;7.00;99.90;;;;;;4993099;28;20198;-82
2023/12/22 05:39:03;;;;;;;2.97;0.60;;;7.10;99.90;;;;;;4972394;28;20244;-85
2023/12/22 05:41:28;;;;;;;1.87;0.43;;;7.10;99.90;;;;;;4988279;28;20219;-83
2023/12/22 05:43:54;;;;;;;1.53;0.60;;;7.10;99.90;;;;;;4974065;28;20187;-83
2023/12/22 05:46:19;;;;;;;3.27;0.80;;;7.10;99.90;;;;;;4976312;28;20209;-82
2023/12/22 05:48:45;;;;;;;0.83;0.63;;;7.20;99.90;;;;;;4985894;28;20214;-85
2023/12/22 05:51:13;;;;;;;2.30;0.30;;;7.20;99.90;;;;;;4986805;28;20361;-81
2023/12/22 05:53:40;;;;;;;3.35;0.63;;;7.20;99.90;;;;;;4973545;28;20183;-81
2023/12/22 05:56:17;;;;;;;0.50;0.45;;;7.20;99.90;;;;;;4976503;28;20274;-79
2023/12/22 05:58:42;;;;;;;0.40;0.30;;;7.10;99.90;;;;;;4990473;28;20242;-83
2023/12/22 06:01:08;;;;;;;1.60;1.23;;;7.00;99.90;;;;;;4987289;28;20195;-82
2023/12/22 06:03:33;;;;;;;1.73;0.50;;;7.00;99.90;;;;;;4987187;28;20183;-85
2023/12/22 06:05:59;;;;;;;3.53;1.20;;;6.90;99.90;;;;;;4977309;28;20193;-81
2023/12/22 06:08:24;;;;;;;1.00;0.70;;;7.20;99.90;;;;;;4982163;28;20210;-85
2023/12/22 06:10:49;;;;;;;1.70;0.70;;;7.30;99.90;;;;;;4983223;28;20726;-84
2023/12/22 06:13:15;;;;;;;2.47;0.50;;;7.40;99.90;;;;;;5005838;28;20294;-79
2023/12/22 06:15:41;;;;;;;0.73;0.30;;;;;;;;;;4978677;28;20711;-81
2023/12/22 06:18:06;;;;;;;4.43;1.00;;;7.50;99.90;;;;;;4992170;28;20195;-81
2023/12/22 06:20:32;;;;;;;2.43;1.07;;;7.50;99.90;;;;;;4977223;28;20195;-84
2023/12/22 06:22:58;;;;;;;3.37;1.10;;;7.60;99.90;;;;;;4978781;28;20293;-84
2023/12/22 06:25:23;;;;;;;0.50;0.30;;;7.60;99.90;;;;;;4988535;28;20264;-84
2023/12/22 06:27:48;;;;;;;15.47;1.53;;;7.50;99.90;;;;;;5016847;28;20281;-85
2023/12/22 06:30:15;;;;;;;0.55;0.55;;;7.60;99.90;;;;;;4977526;28;20227;-85
2023/12/22 06:32:41;;;;;;;0.53;0.43;;;7.60;99.90;;;;;;4990972;28;20192;-82
2023/12/22 06:35:08;;;;;;;1.63;0.67;;;7.60;99.90;;;;;;4972962;28;20207;-83
2023/12/22 06:37:34;;;;;;;1.45;0.88;;;7.60;99.90;;;;;;4975162;28;20744;-84
2023/12/22 06:39:59;;;;;;;2.90;0.60;;;7.70;99.90;;;;;;4978147;28;20694;-84
2023/12/22 06:42:25;;;;;;;1.80;0.60;;;7.70;99.90;;;;;;4995551;28;20183;-87
2023/12/22 06:44:50;;;;;;;1.43;0.97;;;7.70;99.90;;;;;;4975852;28;20298;-81
2023/12/22 06:47:16;;;;;;;3.27;1.57;;;7.70;99.90;;;;;;4977547;28;20206;-84
2023/12/22 06:49:41;;;;;;;2.90;0.63;;;7.80;99.90;;;;;;5000573;28;20203;-84
2023/12/22 06:52:07;;;;;;;1.60;0.50;;;7.70;99.90;;;;;;4987984;28;20653;-84
2023/12/22 06:54:33;;;;;;;0.40;0.40;;;7.70;99.90;;;;;;4986406;28;23667;-82
2023/12/22 06:56:59;;;;;;;6.40;0.88;;;7.70;99.90;;;;;;4979592;28;20191;-85
2023/12/22 06:59:24;;;;;;;1.23;0.63;;;7.80;99.90;;;;;;4984246;28;20213;-84
2023/12/22 07:01:50;;;;;;;0.60;0.40;;;7.80;99.90;;;;;;4976061;28;20191;-81
2023/12/22 07:04:15;;;;;;;0.43;0.43;;;7.80;99.90;;;;;;4978162;28;20186;-82
2023/12/22 07:06:41;;;;;;;16.50;0.77;;;7.70;99.90;;;;;;4982973;28;20240;-84
2023/12/22 07:09:19;;;;;;;0.83;0.73;;;7.70;99.90;;;;;;4990112;28;20199;-82
2023/12/22 07:11:50;;;;;;;0.95;0.47;;;7.70;99.90;;;;;;4979934;28;20442;-86
2023/12/22 07:14:16;;;;;;;2.25;0.50;;;7.70;99.90;;;;;;4975716;28;20223;-85
2023/12/22 07:16:43;;;;;;;1.15;0.85;;;;;;;;;;4971364;28;20191;-87
2023/12/22 07:19:09;;;;;;;4.32;1.02;;;7.70;99.90;;;;;;4979332;28;20275;-86
2023/12/22 07:21:35;;;;;;;1.17;0.73;;;;;;;;;;5005397;28;20204;-85
2023/12/22 07:24:01;;;;;;;0.47;0.40;;;7.60;99.90;;;;;;4993988;28;20202;-85
2023/12/22 07:26:27;;;;;;;0.97;0.60;;;7.70;99.90;;;;;;4979478;28;20477;-84
2023/12/22 07:28:53;;;;;;;0.40;0.37;;;7.60;99.90;;;;;;4981172;28;20561;-82
2023/12/22 07:31:19;;;;;;;0.85;0.50;;;7.60;99.90;;;;;;4971311;28;20446;-84
2023/12/22 07:33:44;;;;;;;0.37;0.30;;;7.60;99.90;;;;;;4976420;28;20226;-82
2023/12/22 07:36:10;;;;;;;2.20;0.70;;;7.60;99.90;;;;;;4973278;28;20439;-83
2023/12/22 07:38:36;;;;;;;8.03;0.87;;;7.60;99.90;;;;;;4969480;28;20704;-82
2023/12/22 07:41:02;;;;;;;1.25;0.90;;;7.60;99.90;;;;;;4986950;28;20187;-84
2023/12/22 07:43:29;;;;;;;2.87;0.77;;;7.60;99.90;;;;;;4975727;28;20273;-87
2023/12/22 07:45:55;;;;;;;0.75;0.57;;;;;;;;;;4977366;28;20180;-86
2023/12/22 07:48:21;;;;;;;2.33;1.13;;;7.60;99.90;;;;;;4987048;28;20221;-84
2023/12/22 07:50:46;;;;;;;0.63;0.53;;;7.60;99.90;;;;;;4969157;28;20971;-85
2023/12/22 07:53:12;;;;;;;3.80;0.67;;;7.60;99.90;;;;;;4971077;28;20689;-81
2023/12/22 07:55:38;;;;;;;0.40;0.40;;;7.60;99.90;;;;;;4977654;28;20232;-84
2023/12/22 07:58:04;;;;;;;2.80;0.60;;;7.50;99.90;;;;;;4975111;28;20205;-86
2023/12/22 08:00:30;;;;;;;4.53;1.10;;;7.50;99.90;;;;;;4978437;28;20688;-83
2023/12/22 08:02:56;;;;;;;0.80;0.80;;;7.40;99.90;;;;;;4979039;28;20194;-86
2023/12/22 08:05:21;;;;;;;0.60;0.40;;;7.40;99.90;;;;;;4997376;28;20182;-81
2023/12/22 08:07:47;;;;;;;4.20;0.50;;;7.20;99.90;;;;;;4967013;28;20182;-82
2023/12/22 08:10:12;;;;;;;0.90;0.50;;;7.10;99.90;;;;;;4970433;28;20300;-85
2023/12/22 08:12:38;;;;;;;3.00;1.23;;;7.10;99.90;;;;;;4976749;28;21103;-88
2023/12/22 08:15:04;;;;;;;0.40;0.30;;;7.10;99.90;;;;;;4972660;28;20342;-84
2023/12/22 08:17:29;;;;;;;0.45;0.45;;;7.10;99.90;;;;;;4981690;28;20191;-84
2023/12/22 08:19:56;;;;;;;0.50;0.47;;;7.10;99.90;;;;;;4980885;28;20203;-83
2023/12/22 08:22:22;;;;;;;0.60;0.60;;;7.10;99.90;;;;;;4987127;28;20191;-81
2023/12/22 08:24:50;;;;;;;0.47;0.47;;;7.10;99.90;;;;;;4988723;28;20707;-85
2023/12/22 08:27:16;;;;;;;0.98;0.75;;;7.10;99.90;;;;;;4987656;28;20186;-85
2023/12/22 08:29:41;;;;;;;0.53;0.40;;;7.10;99.90;;;;;;4977068;28;20211;-83
2023/12/22 08:32:07;;;;;;;2.20;1.43;;;7.10;99.90;;;;;;4959431;28;20201;-81
2023/12/22 08:34:33;;;;;;;0.40;0.30;;;7.10;99.90;;;;;;4960785;28;20210;-87
2023/12/22 08:36:59;;;;;;;0.60;0.40;;;7.10;99.90;;;;;;4974402;28;20760;-82
2023/12/22 08:39:25;;;;;;;6.68;0.80;;;7.10;99.90;;;;;;4963287;28;20205;-80
2023/12/22 08:41:50;;;;;;;2.10;1.17;;;7.10;99.90;;;;;;4987801;28;20199;-80
2023/12/22 08:44:16;;;;;;;4.43;1.50;;;7.10;99.90;;;;;;4972246;28;20195;-85
2023/12/22 08:46:41;;;;;;;1.60;0.60;;;7.10;99.90;;;;;;4959381;28;20186;-85
2023/12/22 08:49:07;;;;;;;0.60;0.50;;;6.90;99.90;;;;;;4957161;28;20241;-82
2023/12/22 08:51:33;;;;;;;7.40;1.23;;;7.00;99.90;;;;;;4978128;28;20191;-84
2023/12/22 08:53:59;;;;;;;1.55;0.63;;;7.00;99.90;;;;;;4964859;28;20203;-82
2023/12/22 08:56:26;;;;;;;4.60;1.20;;;7.10;99.90;;;;;;4952507;28;20202;-81
2023/12/22 08:58:54;;;;;;;1.08;0.65;;;7.10;99.90;;;;;;4985488;28;20241;-83
2023/12/22 09:01:20;;;;;;;1.30;0.93;;;7.00;99.90;;;;;;4989679;28;20187;-80
2023/12/22 09:03:46;;;;;;;0.65;0.65;;;7.00;99.90;;;;;;4986726;28;20191;-82
2023/12/22 09:06:19;;;;;;;6.07;2.47;;;7.00;99.90;;;;;;4988702;28;20284;-83
2023/12/22 09:08:45;;;;;;;6.57;1.48;;;7.10;99.90;;;;;;4981935;28;21017;-84
2023/12/22 09:11:16;;;;;;;18.87;3.17;;;7.10;99.90;;;;;;4984054;28;20191;-87
2023/12/22 09:13:41;;;;;;;4.95;1.10;;;7.20;99.90;;;;;;4968581;28;20452;-83
2023/12/22 09:16:08;;;;;;;2.97;1.07;;;7.30;99.90;;;;;;4975451;28;20191;-84
2023/12/22 09:18:34;;;;;;;1.35;1.20;;;7.40;99.90;;;;;;5005070;28;20202;-86
2023/12/22 09:21:00;;;;;;;3.00;1.00;;;7.40;99.90;;;;;;4982464;28;20191;-86
2023/12/22 09:23:25;;;;;;;5.60;1.73;;;7.40;99.90;;;;;;4969897;28;20191;-79
2023/12/22 09:25:51;;;;;;;2.87;1.60;;;7.40;99.90;;;;;;4959790;28;20198;-80
2023/12/22 09:28:16;;;;;;;10.53;1.17;;;7.40;99.90;;;;;;4979231;28;20293;-81
2023/12/22 09:30:42;;;;;;;3.20;1.00;;;;;;;;;;4979523;28;20190;-85
2023/12/22 09:33:09;;;;;;;1.42;0.57;;;7.50;99.90;;;;;;4975612;28;20232;-78
2023/12/22 09:35:35;;;;;;;4.00;1.83;;;7.50;99.90;;;;;;4980571;28;20730;-81
2023/12/22 09:38:01;;;;;;;3.85;1.50;;;7.60;99.90;;;;;;4979020;28;20195;-80
2023/12/22 09:40:26;;;;;;;5.03;1.07;;;7.60;99.90;;;;;;4980576;28;20211;-82
2023/12/22 09:42:54;;;;;;;1.17;0.90;;;7.60;99.90;;;;;;4996134;28;20167;-80
2023/12/22 09:45:21;;;;;;;8.02;0.88;;;7.70;99.90;;;;;;4977145;28;20188;-82
2023/12/22 09:47:48;;;;;;;5.80;3.40;;;7.70;99.90;;;;;;4978816;28;20210;-84
2023/12/22 09:50:15;;;;;;;11.27;1.52;;;7.70;99.90;;;;;;4971884;28;20217;-82
2023/12/22 09:52:45;;;;;;;4.88;1.80;;;7.70;99.90;;;;;;4994075;28;20191;-83
2023/12/22 09:55:14;;;;;;;1.13;0.40;;;7.80;99.90;;;;;;4971701;28;20338;-82
2023/12/22 09:57:41;;;;;;;15.25;3.50;;;7.80;99.90;;;;;;4976479;28;21241;-80
2023/12/22 10:00:12;;;;;;;1.77;0.98;;;7.80;99.90;;;;;;4977229;28;20222;-78
2023/12/22 10:02:39;;;;;;;12.00;0.77;;;7.80;99.90;;;;;;4967058;28;20191;-81
2023/12/22 10:05:05;;;;;;;0.95;0.70;;;7.70;99.90;;;;;;4977159;28;20202;-83
2023/12/22 10:07:33;;;;;;;2.63;1.38;;;7.90;99.90;;;;;;4976111;28;20688;-86
2023/12/22 10:10:00;;;;;;;5.70;1.67;;;;;;;;;;4983714;28;20219;-81
2023/12/22 10:12:28;;;;;;;8.57;1.58;;;8.00;99.90;;;;;;5002510;28;20667;-83
2023/12/22 10:14:54;;;;;;;5.45;1.27;;;8.00;99.90;;;;;;4962814;28;20210;-79
2023/12/22 10:17:20;;;;;;;7.20;1.47;;;8.00;99.90;;;;;;4982900;28;20854;-84
2023/12/22 10:19:46;;;;;;;8.93;3.00;;;8.00;99.90;;;;;;4955832;28;20863;-83
2023/12/22 10:22:11;;;;;;;20.43;2.77;;;7.90;99.90;;;;;;4965897;28;20939;-85
2023/12/22 10:24:44;;;;;;;2.20;0.80;;;8.10;99.90;;;;;;4972880;28;20909;-84
2023/12/22 10:27:16;;;;;;;1.85;0.60;;;8.10;99.90;;;;;;4973842;28;20225;-81
2023/12/22 10:29:42;;;;;;;1.15;0.57;;;8.10;99.90;;;;;;4973136;28;20303;-85
2023/12/22 10:32:08;;;;;;;11.20;1.37;;;8.10;99.90;;;;;;4966274;28;20191;-85
2023/12/22 10:34:34;;;;;;;4.35;0.95;;;8.00;99.90;;;;;;4980167;28;20207;-83
2023/12/22 10:37:00;;;;;;;3.30;1.13;;;8.40;99.90;;;;;;4978549;28;20195;-81
2023/12/22 10:39:30;;;;;;;2.40;1.37;;;8.10;99.90;;;;;;4971702;28;20212;-82
2023/12/22 10:41:57;;;;;;;0.40;0.30;;;8.10;99.90;;;;;;5002070;28;20453;-82
2023/12/22 10:44:25;;;;;;;0.75;0.57;;;8.00;99.90;;;;;;4983476;28;20202;-81
2023/12/22 10:46:52;;;;;;;2.10;0.65;;;8.00;99.90;;;;;;4972365;28;20660;-81
2023/12/22 10:49:19;;;;;;;1.85;0.90;;;8.00;99.90;;;;;;4988386;28;20211;-82
2023/12/22 10:51:45;;;;;;;5.50;1.65;;;8.10;99.90;;;;;;4976257;28;20262;-83
2023/12/22 10:54:10;;;;;;;6.80;1.33;;;8.00;99.90;;;;;;4975909;28;20218;-83
2023/12/22 10:56:36;;;;;;;4.30;2.60;;;8.00;99.90;;;;;;4986697;28;20501;-82
2023/12/22 10:59:06;;;;;;;3.03;1.15;;;;;;;;;;4952688;28;20215;-83
2023/12/22 11:01:38;;;;;;;11.85;1.17;;;8.10;99.90;;;;;;4982608;28;21407;-83
2023/12/22 11:04:08;;;;;;;1.67;0.88;;;8.10;99.90;;;;;;4986176;28;20186;-85
2023/12/22 11:06:39;;;;;;;0.47;0.47;;;8.00;99.90;;;;;;4993768;28;20202;-87
2023/12/22 11:09:09;;;;;;;1.58;0.93;;;8.10;99.90;;;;;;4967972;28;20202;-83
2023/12/22 11:11:36;;;;;;;2.85;0.77;;;8.10;99.90;;;;;;4948537;28;20194;-82
2023/12/22 11:14:02;;;;;;;6.05;1.50;;;8.10;99.90;;;;;;4978435;28;20215;-83
2023/12/22 11:16:29;;;;;;;2.58;1.10;;;8.10;99.90;;;;;;4964687;28;20190;-83
2023/12/22 11:18:56;;;;;;;1.00;0.90;;;8.10;99.90;;;;;;4968199;28;20216;-82
2023/12/22 11:21:25;;;;;;;3.67;0.85;;;8.10;99.90;;;;;;4980027;28;20203;-79
2023/12/22 11:23:52;;;;;;;9.30;1.67;;;8.10;99.90;;;;;;4982375;28;20251;-85
2023/12/22 11:26:18;;;;;;;7.15;1.85;;;8.10;99.90;;;;;;4967170;28;20183;-83
2023/12/22 11:28:46;;;;;;;1.98;0.77;;;8.00;99.90;;;;;;4990719;28;20246;-85
2023/12/22 11:31:12;;;;;;;4.00;0.80;;;8.00;99.90;;;;;;4980342;28;20250;-85
2023/12/22 11:33:43;;;;;;;1.30;0.85;;;8.10;99.90;;;;;;4993289;28;20195;-85
2023/12/22 11:36:12;;;;;;;1.00;0.60;;;8.10;99.90;;;;;;4966401;28;20244;-84
2023/12/22 11:38:43;;;;;;;7.30;1.23;;;8.10;99.90;;;;;;4981952;28;20214;-85
2023/12/22 11:41:25;;;;;;;8.32;2.55;;;8.10;99.90;;;;;;4970473;28;20273;-86
2023/12/22 11:43:51;;;;;;;8.20;2.30;;;8.10;99.90;;;;;;4980560;28;20191;-87
2023/12/22 11:46:18;;;;;;;0.75;0.40;;;8.10;99.90;;;;;;4981912;28;20675;-85
2023/12/22 11:48:50;;;;;;;0.93;0.93;;;8.10;99.90;;;;;;4991054;28;20302;-89
2023/12/22 11:51:17;;;;;;;13.52;4.47;;;8.10;99.90;;;;;;4997941;28;20756;-83
2023/12/22 11:53:43;;;;;;;1.05;0.40;;;8.10;99.90;;;;;;4970255;28;20217;-86
2023/12/22 11:56:10;;;;;;;5.80;1.58;;;8.10;99.90;;;;;;5006575;28;20254;-84
2023/12/22 11:58:38;;;;;;;20.40;3.97;;;8.20;99.90;;;;;;4977573;28;21276;-83
2023/12/22 12:01:07;;;;;;;0.82;0.73;;;8.20;99.90;;;;;;4962191;28;20741;-83
2023/12/22 12:03:33;;;;;;;2.00;0.50;;;;;;;;;;4985382;28;20290;-84
2023/12/22 12:06:10;;;;;;;1.70;0.60;;;8.20;99.90;;;;;;4979215;28;20992;-84
2023/12/22 12:08:36;;;;;;;2.67;1.27;;;8.20;99.90;;;;;;4978892;28;20525;-83
2023/12/22 12:11:03;;;;;;;1.43;1.10;;;;;;;;;;4979333;28;20593;-82
2023/12/22 12:13:31;;;;;;;0.40;0.30;;;8.10;99.90;;;;;;4976219;28;20195;-83
2023/12/22 12:16:00;;;;;;;1.27;0.80;;;8.10;99.90;;;;;;4983140;28;20222;-84
2023/12/22 12:18:28;;;;;;;0.40;0.30;;;8.10;99.90;;;;;;4977316;28;20190;-85
2023/12/22 12:20:54;;;;;;;1.30;0.60;;;8.10;99.90;;;;;;4987175;28;20198;-83
2023/12/22 12:23:23;;;;;;;6.28;1.00;;;8.10;99.90;;;;;;4954080;28;20408;-82
2023/12/22 12:25:49;;;;;;;1.25;0.70;;;8.10;99.90;;;;;;4985417;28;20251;-80
2023/12/22 12:28:19;;;;;;;2.73;0.77;;;8.10;99.90;;;;;;4979921;28;20187;-82
2023/12/22 12:30:45;;;;;;;0.80;0.55;;;8.10;99.90;;;;;;4971978;28;20528;-85
2023/12/22 12:33:13;;;;;;;0.98;0.47;;;8.20;99.90;;;;;;4981358;28;20195;-85
2023/12/22 12:35:39;;;;;;;0.60;0.40;;;8.10;99.90;;;;;;4995894;28;20507;-84
2023/12/22 12:38:05;;;;;;;0.60;0.38;;;8.20;99.90;;;;;;4965654;28;20187;-85
2023/12/22 12:40:33;;;;;;;0.47;0.47;;;8.10;99.90;;;;;;4983811;28;20206;-84
2023/12/22 12:43:00;;;;;;;2.35;0.40;;;8.20;99.90;;;;;;4985767;28;20187;-86
2023/12/22 12:45:26;;;;;;;0.40;0.40;;;8.30;99.90;;;;;;4995543;28;20278;-83
2023/12/22 12:47:59;;;;;;;1.98;0.70;;;8.30;99.90;;;;;;4974892;28;20203;-82
2023/12/22 12:50:26;;;;;;;3.33;0.75;;;8.30;99.90;;;;;;4977251;28;20640;-79
2023/12/22 12:52:53;;;;;;;1.13;0.38;;;8.30;99.90;;;;;;4980789;28;20198;-83
2023/12/22 12:55:20;;;;;;;1.25;0.80;;;8.40;99.90;;;;;;4991311;28;20248;-79